CYSF

Stony Rapids Airport

Stony Rapids, Saskatchewan, Canada
METAR CYSF 190300Z AUTO 26003KT 9SM BKN060 M02/M07 A3007 RMK SLP198
Observed Flight Rules
Sep-19 @ 03:00 UTC (25 minutes ago) Visual Flight Rules
Wind Visibility Clouds
260° at 3 knots 9 miles
  • Broken at 6,000' AGL
Temperatures Readings
Current -2°C / 28°F
Dewpoint -7°C / 19°F
Humidity 69%
Altimeter 30.07" Hg
Pressure 1019.8 hPa
Elevation 250
METAR CYSF 190300Z AUTO 26003KT 9SM BKN060 M02/M07 A3007 RMK SLP198
Observed Flight Rules
Sep-19 @ 03:00 UTC
(25 minutes ago)
VFR
Wind Visibility
260° at 3 knots 9 miles
Clouds
  • Broken at 6,000' AGL
Temperature Dewpoint
-2°C / 28°F -7°C / 19°F
Humidity Altimeter Pressure
69% 30.07" Hg 1019.8 hPa